Time;durP1;ratioP1;P1;durP2;ratioP2;P2;SDS_P1;SDS_P2;PMS_P1;PMS_P2;Temp;Humidity;BMP_temperature;BMP_pressure;BME280_temperature;BME280_humidity;BME280_pressure;Samples;Min_cycle;Max_cycle;Signal;HPM_P1;HPM_P2
2022/11/04 00:01:16;;;;;;;;;;;21.00;34.50;;;;;;5035457;28;19961;-66
2022/11/04 00:03:42;;;;;;;;;;;21.20;35.40;;;;;;5043681;28;19965;-65
2022/11/04 00:06:08;;;;;;;;;;;21.00;35.40;;;;;;5034856;28;19966;-66
2022/11/04 00:08:34;;;;;;;;;;;20.80;36.50;;;;;;5032164;28;20004;-65
2022/11/04 00:13:45;;;;;;;;;;;21.00;37.40;;;;;;5034989;28;20451;-58
2022/11/04 00:18:55;;;;;;;;;;;20.70;39.50;;;;;;5043102;28;20012;-66
2022/11/04 00:29:36;;;;;;;;;;;20.10;41.00;;;;;;5034078;28;20005;-66
2022/11/04 00:34:46;;;;;;;;;;;19.90;41.30;;;;;;5038507;28;20433;-58
2022/11/04 00:37:12;;;;;;;;;;;19.80;41.50;;;;;;5029235;28;19957;-63
2022/11/04 00:39:38;;;;;;;;;;;19.60;41.40;;;;;;5029191;28;20811;-62
2022/11/04 00:42:04;;;;;;;;;;;19.60;41.50;;;;;;5035357;28;20338;-58
2022/11/04 00:44:30;;;;;;;;;;;19.60;41.40;;;;;;5030487;28;19968;-64
2022/11/04 00:46:56;;;;;;;;;;;19.60;41.30;;;;;;5036523;28;19973;-65
2022/11/04 00:49:22;;;;;;;;;;;19.50;41.20;;;;;;5033114;28;20438;-65
2022/11/04 00:51:48;;;;;;;;;;;19.50;41.40;;;;;;5038433;28;19985;-64
2022/11/04 00:54:14;;;;;;;;;;;19.40;41.50;;;;;;5036304;28;20042;-64
2022/11/04 00:56:41;;;;;;;;;;;19.40;41.50;;;;;;5041110;28;20051;-65
2022/11/04 00:59:07;;;;;;;;;;;19.30;42.00;;;;;;5039257;28;19987;-64
2022/11/04 01:01:33;;;;;;;;;;;19.30;42.10;;;;;;5040345;28;19962;-64
2022/11/04 01:03:59;;;;;;;;;;;19.10;42.40;;;;;;5045140;28;19956;-64
2022/11/04 01:06:25;;;;;;;;;;;19.00;42.50;;;;;;5040768;28;20397;-64
2022/11/04 01:09:02;;;;;;;;;;;19.00;42.50;;;;;;5042980;28;19964;-64
2022/11/04 01:11:30;;;;;;;;;;;18.90;42.60;;;;;;5041581;28;19971;-65
2022/11/04 01:13:56;;;;;;;;;;;18.80;42.40;;;;;;5042165;28;19984;-67
2022/11/04 01:16:23;;;;;;;;;;;18.80;42.60;;;;;;5034055;28;19973;-66
2022/11/04 01:18:49;;;;;;;;;;;18.80;42.50;;;;;;5040746;28;20307;-65
2022/11/04 01:21:16;;;;;;;;;;;18.70;42.50;;;;;;5041579;28;20318;-65
2022/11/04 01:23:42;;;;;;;;;;;18.70;42.70;;;;;;5037629;28;19956;-64
2022/11/04 01:26:11;;;;;;;;;;;18.70;42.60;;;;;;5034430;28;19960;-65
2022/11/04 01:28:37;;;;;;;;;;;18.60;42.50;;;;;;5042657;28;19958;-65
2022/11/04 01:31:10;;;;;;;;;;;18.60;42.50;;;;;;5038917;28;20023;-65
2022/11/04 01:33:37;;;;;;;;;;;18.50;42.40;;;;;;5037103;28;20397;-67
2022/11/04 01:36:03;;;;;;;;;;;18.60;42.40;;;;;;5043071;28;20022;-65
2022/11/04 01:38:29;;;;;;;;;;;18.50;42.40;;;;;;5037547;28;19956;-65
2022/11/04 01:40:55;;;;;;;;;;;18.50;42.30;;;;;;5038685;28;19956;-66
2022/11/04 01:43:22;;;;;;;;;;;18.40;42.40;;;;;;5035994;28;20006;-66
2022/11/04 01:45:53;;;;;;;;;;;18.40;42.50;;;;;;5037175;28;19979;-65
2022/11/04 01:48:21;;;;;;;;;;;18.40;42.70;;;;;;5039535;28;19958;-67
2022/11/04 01:50:48;;;;;;;;;;;18.30;42.80;;;;;;5035667;28;20043;-65
2022/11/04 01:53:28;;;;;;;;;;;19.20;43.30;;;;;;5038500;28;20003;-65
2022/11/04 01:55:55;;;;;;;;;;;18.30;43.20;;;;;;5038380;28;19971;-67
2022/11/04 01:58:25;;;;;;;;;;;18.30;43.50;;;;;;5035088;28;20045;-65
2022/11/04 02:00:51;;;;;;;;;;;18.20;43.70;;;;;;5036278;28;19992;-64
2022/11/04 02:03:19;;;;;;;;;;;18.20;43.80;;;;;;5054278;28;19957;-67
2022/11/04 02:05:45;;;;;;;;;;;18.20;44.10;;;;;;5041383;28;19960;-61
2022/11/04 02:08:12;;;;;;;;;;;18.10;44.20;;;;;;5041730;28;19957;-65
2022/11/04 02:10:39;;;;;;;;;;;17.60;44.30;;;;;;5039473;28;19972;-65
2022/11/04 02:13:05;;;;;;;;;;;18.10;44.70;;;;;;5037606;28;19957;-68
2022/11/04 02:15:35;;;;;;;;;;;18.00;45.00;;;;;;5039935;28;21949;-68
2022/11/04 02:18:09;;;;;;;;;;;18.00;45.30;;;;;;5037117;28;20002;-67
2022/11/04 02:20:55;;;;;;;;;;;17.90;45.40;;;;;;5039394;28;21558;-67
2022/11/04 02:23:21;;;;;;;;;;;17.90;45.60;;;;;;5027946;28;20363;-66
2022/11/04 02:26:07;;;;;;;;;;;17.80;45.70;;;;;;5041413;28;20048;-66
2022/11/04 02:28:33;;;;;;;;;;;17.80;45.70;;;;;;5040382;28;20397;-67
2022/11/04 02:31:06;;;;;;;;;;;17.80;45.90;;;;;;5039656;28;19971;-65
2022/11/04 02:33:46;;;;;;;;;;;17.80;46.00;;;;;;5033315;28;19958;-66
2022/11/04 02:36:27;;;;;;;;;;;17.80;46.20;;;;;;5041166;28;20372;-67
2022/11/04 02:38:55;;;;;;;;;;;17.70;46.40;;;;;;5037459;28;19985;-65
2022/11/04 02:41:44;;;;;;;;;;;17.70;46.50;;;;;;5034290;28;19972;-67
2022/11/04 02:44:20;;;;;;;;;;;17.70;46.20;;;;;;5035965;28;19968;-67
2022/11/04 02:46:50;;;;;;;;;;;17.70;46.40;;;;;;5035890;28;19965;-67
2022/11/04 02:49:19;;;;;;;;;;;17.60;46.00;;;;;;5040491;28;20037;-66
2022/11/04 02:51:52;;;;;;;;;;;17.60;46.30;;;;;;5040080;28;19990;-68
2022/11/04 02:54:27;;;;;;;;;;;17.40;46.20;;;;;;5037066;28;20005;-66
2022/11/04 02:56:55;;;;;;;;;;;17.40;46.30;;;;;;5038175;28;20000;-67
2022/11/04 02:59:44;;;;;;;;;;;17.40;46.60;;;;;;5036311;28;20302;-65
2022/11/04 03:02:12;;;;;;;;;;;17.40;46.80;;;;;;5035042;28;19972;-66
2022/11/04 03:04:40;;;;;;;;;;;17.30;46.70;;;;;;5037870;28;20043;-68
2022/11/04 03:07:09;;;;;;;;;;;17.30;47.00;;;;;;5045695;28;19956;-67
2022/11/04 03:09:36;;;;;;;;;;;17.30;47.10;;;;;;5039261;28;19958;-65
2022/11/04 03:12:05;;;;;;;;;;;17.30;47.10;;;;;;5035949;28;19972;-65
2022/11/04 03:14:35;;;;;;;;;;;17.20;47.10;;;;;;5038922;28;19984;-67
2022/11/04 03:17:04;;;;;;;;;;;17.20;47.20;;;;;;5041306;28;20297;-64
2022/11/04 03:19:41;;;;;;;;;;;17.20;47.50;;;;;;5038374;28;19957;-66
2022/11/04 03:22:13;;;;;;;;;;;17.20;47.60;;;;;;5045606;28;20440;-66
2022/11/04 03:24:40;;;;;;;;;;;17.10;47.60;;;;;;5047113;28;20493;-65
2022/11/04 03:27:06;;;;;;;;;;;17.10;47.50;;;;;;5045458;28;19964;-65
2022/11/04 03:29:38;;;;;;;;;;;17.10;47.60;;;;;;5041221;28;19957;-65
2022/11/04 03:32:07;;;;;;;;;;;17.10;47.80;;;;;;5037786;28;20104;-65
2022/11/04 03:34:34;;;;;;;;;;;17.10;48.00;;;;;;5042098;28;19965;-65
2022/11/04 03:37:00;;;;;;;;;;;17.10;48.00;;;;;;5041418;28;20366;-67
2022/11/04 03:39:26;;;;;;;;;;;17.10;48.00;;;;;;5046264;28;19958;-66
2022/11/04 03:41:56;;;;;;;;;;;17.10;48.00;;;;;;5036667;28;19958;-65
2022/11/04 03:44:22;;;;;;;;;;;18.50;48.80;;;;;;5038528;28;19957;-66
2022/11/04 03:46:49;;;;;;;;;;;17.00;48.10;;;;;;5043310;28;19956;-67
2022/11/04 03:49:15;;;;;;;;;;;16.90;48.30;;;;;;5042241;28;20071;-65
2022/11/04 03:51:41;;;;;;;;;;;17.00;48.50;;;;;;5037627;28;19993;-65
2022/11/04 03:54:08;;;;;;;;;;;17.00;48.50;;;;;;5043353;28;19961;-64
2022/11/04 03:56:34;;;;;;;;;;;17.00;48.40;;;;;;5050018;28;21342;-63
2022/11/04 03:59:09;;;;;;;;;;;17.00;48.60;;;;;;5043365;28;19972;-65
2022/11/04 04:01:35;;;;;;;;;;;16.90;48.50;;;;;;5040992;28;19955;-65
2022/11/04 04:04:01;;;;;;;;;;;17.00;48.60;;;;;;5038342;28;20339;-65
2022/11/04 04:06:30;;;;;;;;;;;16.90;48.50;;;;;;5039870;28;19963;-65
2022/11/04 04:09:00;;;;;;;;;;;16.90;48.70;;;;;;5040330;28;19957;-64
2022/11/04 04:11:38;;;;;;;;;;;16.90;48.70;;;;;;5039853;28;19973;-65
2022/11/04 04:14:38;;;;;;;;;;;16.90;48.80;;;;;;5040479;28;19973;-67
2022/11/04 04:17:24;;;;;;;;;;;16.80;48.80;;;;;;5045741;28;19954;-67
2022/11/04 04:19:52;;;;;;;;;;;16.90;48.90;;;;;;5041503;28;19966;-66
2022/11/04 04:22:28;;;;;;;;;;;16.80;48.80;;;;;;5041914;28;20417;-66
2022/11/04 04:27:40;;;;;;;;;;;16.80;48.80;;;;;;5038758;28;20051;-64
2022/11/04 04:30:14;;;;;;;;;;;16.80;48.70;;;;;;5039934;28;20020;-66
2022/11/04 04:32:42;;;;;;;;;;;16.80;48.50;;;;;;5041010;28;19976;-65
2022/11/04 04:44:58;;;;;;;;;;;16.80;48.50;;;;;;5044874;28;19960;-65
2022/11/04 04:46:11;;;;;;;;;;;16.70;48.40;;;;;;5039507;28;19984;-66
2022/11/04 04:48:37;;;;;;;;;;;16.80;48.50;;;;;;5044740;28;20473;-67
2022/11/04 04:51:03;;;;;;;;;;;16.70;48.50;;;;;;5039158;28;20429;-65
2022/11/04 04:53:29;;;;;;;;;;;16.70;48.60;;;;;;5039892;28;19957;-65
2022/11/04 04:55:55;;;;;;;;;;;16.80;48.60;;;;;;5043146;28;20437;-67
2022/11/04 04:58:21;;;;;;;;;;;16.70;48.60;;;;;;5036925;28;19957;-67
2022/11/04 05:00:47;;;;;;;;;;;16.70;48.60;;;;;;5042807;28;19964;-66
2022/11/04 05:03:13;;;;;;;;;;;16.70;48.70;;;;;;5046275;28;19961;-65
2022/11/04 05:05:39;;;;;;;;;;;16.70;48.60;;;;;;5038134;28;20361;-66
2022/11/04 05:08:06;;;;;;;;;;;16.70;48.50;;;;;;5040241;28;19957;-63
2022/11/04 05:10:32;;;;;;;;;;;16.70;48.60;;;;;;5039673;28;19964;-67
2022/11/04 05:15:42;;;;;;;;;;;16.70;48.50;;;;;;5035895;28;20199;-68
2022/11/04 05:18:08;;;;;;;;;;;16.70;48.60;;;;;;5036799;28;20454;-64
2022/11/04 05:20:37;;;;;;;;;;;16.60;48.30;;;;;;5042311;28;20060;-65
2022/11/04 05:23:03;;;;;;;;;;;16.60;48.40;;;;;;5039837;28;19964;-67
2022/11/04 05:25:29;;;;;;;;;;;16.50;48.30;;;;;;5039123;28;19999;-65
2022/11/04 05:27:58;;;;;;;;;;;16.50;48.50;;;;;;5044803;28;20412;-66
2022/11/04 05:30:24;;;;;;;;;;;16.50;48.40;;;;;;5040006;28;20042;-67
2022/11/04 05:32:50;;;;;;;;;;;16.50;49.30;;;;;;5039267;28;20039;-67
2022/11/04 05:35:16;;;;;;;;;;;16.50;48.60;;;;;;5030478;28;20450;-66
2022/11/04 05:37:42;;;;;;;;;;;16.40;48.70;;;;;;5029493;28;19963;-69
2022/11/04 05:40:08;;;;;;;;;;;16.50;48.80;;;;;;5029023;28;19984;-66
2022/11/04 05:42:35;;;;;;;;;;;16.50;48.90;;;;;;5044393;28;19961;-67
2022/11/04 05:45:02;;;;;;;;;;;16.40;49.00;;;;;;5036648;28;19957;-65
2022/11/04 05:47:28;;;;;;;;;;;16.30;49.10;;;;;;5034818;28;19964;-67
2022/11/04 05:49:54;;;;;;;;;;;16.40;49.10;;;;;;5029683;28;19981;-65
2022/11/04 05:52:20;;;;;;;;;;;16.40;49.00;;;;;;5029584;28;19978;-68
2022/11/04 05:54:46;;;;;;;;;;;16.30;49.20;;;;;;5029755;28;19957;-65
2022/11/04 05:57:12;;;;;;;;;;;16.30;49.40;;;;;;5029580;28;19969;-66
2022/11/04 05:59:38;;;;;;;;;;;16.20;49.10;;;;;;5039343;28;19957;-65
2022/11/04 06:02:04;;;;;;;;;;;16.20;49.20;;;;;;5029401;28;20458;-67
2022/11/04 06:04:30;;;;;;;;;;;16.20;49.20;;;;;;5039025;28;20070;-65
2022/11/04 06:06:56;;;;;;;;;;;16.20;49.10;;;;;;5036628;28;20072;-66
2022/11/04 06:09:37;;;;;;;;;;;16.30;49.00;;;;;;5042925;28;20063;-67
2022/11/04 06:12:08;;;;;;;;;;;16.20;49.00;;;;;;5037437;28;20020;-67
2022/11/04 06:14:34;;;;;;;;;;;16.20;49.00;;;;;;5039947;28;20414;-66
2022/11/04 06:17:00;;;;;;;;;;;16.30;48.90;;;;;;5041271;28;20013;-64
2022/11/04 06:19:26;;;;;;;;;;;16.30;48.80;;;;;;5037495;28;19953;-67
2022/11/04 06:21:52;;;;;;;;;;;16.20;48.70;;;;;;5039756;28;20024;-65
2022/11/04 06:24:18;;;;;;;;;;;16.20;48.70;;;;;;5037537;28;19957;-66
2022/11/04 06:26:44;;;;;;;;;;;16.10;48.90;;;;;;5040860;28;20027;-66
2022/11/04 06:29:10;;;;;;;;;;;16.10;48.90;;;;;;5036681;28;19984;-67
2022/11/04 06:31:37;;;;;;;;;;;16.10;48.90;;;;;;5036571;28;19977;-66
2022/11/04 06:34:03;;;;;;;;;;;16.10;48.80;;;;;;5040502;28;19958;-66
2022/11/04 06:36:29;;;;;;;;;;;16.10;48.80;;;;;;5037338;28;20446;-66
2022/11/04 06:38:55;;;;;;;;;;;16.10;48.90;;;;;;5037092;28;21436;-68
2022/11/04 06:41:21;;;;;;;;;;;16.00;49.00;;;;;;5033989;28;20019;-66
2022/11/04 06:43:47;;;;;;;;;;;16.00;49.20;;;;;;5040086;28;20047;-68
2022/11/04 06:46:31;;;;;;;;;;;16.00;49.30;;;;;;5044663;28;20056;-66
2022/11/04 06:48:57;;;;;;;;;;;16.00;49.40;;;;;;5037506;28;19973;-68
2022/11/04 06:51:24;;;;;;;;;;;16.00;49.40;;;;;;5045192;28;19977;-66
2022/11/04 06:53:50;;;;;;;;;;;15.90;49.40;;;;;;5045625;28;20022;-69
2022/11/04 06:56:16;;;;;;;;;;;15.90;49.50;;;;;;5046293;28;19958;-65
2022/11/04 06:58:42;;;;;;;;;;;15.80;49.40;;;;;;5042472;28;19993;-66
2022/11/04 07:01:09;;;;;;;;;;;15.80;49.60;;;;;;5040413;28;19961;-67
2022/11/04 07:03:35;;;;;;;;;;;15.80;49.50;;;;;;5045367;28;20091;-66
2022/11/04 07:06:08;;;;;;;;;;;15.70;49.60;;;;;;5038838;28;19953;-68
2022/11/04 07:08:34;;;;;;;;;;;15.70;49.70;;;;;;5045097;28;19952;-66
2022/11/04 07:11:00;;;;;;;;;;;15.70;49.90;;;;;;5046034;28;19973;-66
2022/11/04 07:13:26;;;;;;;;;;;15.70;50.00;;;;;;5042283;28;20006;-66
2022/11/04 07:15:52;;;;;;;;;;;15.70;49.80;;;;;;5042950;28;19981;-67
2022/11/04 07:18:18;;;;;;;;;;;15.70;49.80;;;;;;5046874;28;19956;-65
2022/11/04 07:20:44;;;;;;;;;;;15.70;49.80;;;;;;5042754;28;19968;-65
2022/11/04 07:23:10;;;;;;;;;;;15.60;49.90;;;;;;5057762;28;20426;-66
2022/11/04 07:25:36;;;;;;;;;;;15.70;49.90;;;;;;5041640;28;19956;-67
2022/11/04 07:28:03;;;;;;;;;;;15.50;50.10;;;;;;5038829;28;19957;-69
2022/11/04 07:30:29;;;;;;;;;;;15.50;50.10;;;;;;5042726;28;20318;-66
2022/11/04 07:32:55;;;;;;;;;;;15.40;50.30;;;;;;5042652;28;20056;-67
2022/11/04 07:35:21;;;;;;;;;;;15.40;50.50;;;;;;5039957;28;20003;-68
2022/11/04 07:37:47;;;;;;;;;;;15.30;50.40;;;;;;5042149;28;19957;-69
2022/11/04 07:40:13;;;;;;;;;;;15.40;50.40;;;;;;5040998;28;20064;-68
2022/11/04 07:42:39;;;;;;;;;;;15.40;50.40;;;;;;5045140;28;20072;-66
2022/11/04 07:45:06;;;;;;;;;;;15.30;50.50;;;;;;5040589;28;20008;-66
2022/11/04 07:47:32;;;;;;;;;;;15.30;50.40;;;;;;5044253;28;20365;-67
2022/11/04 07:49:58;;;;;;;;;;;15.30;50.60;;;;;;5034003;28;20003;-68
2022/11/04 07:52:24;;;;;;;;;;;15.20;50.70;;;;;;5039190;28;20417;-67
2022/11/04 07:54:50;;;;;;;;;;;15.10;50.70;;;;;;5041250;28;19957;-65
2022/11/04 07:57:16;;;;;;;;;;;15.10;50.90;;;;;;5041129;28;20005;-65
2022/11/04 07:59:42;;;;;;;;;;;15.10;51.00;;;;;;5041039;28;19958;-65
2022/11/04 08:02:09;;;;;;;;;;;15.20;51.00;;;;;;5042663;28;20474;-64
2022/11/04 08:04:35;;;;;;;;;;;15.10;51.00;;;;;;5040480;28;20473;-64
2022/11/04 08:07:04;;;;;;;;;;;14.90;51.10;;;;;;5042046;28;19958;-66
2022/11/04 08:09:30;;;;;;;;;;;14.90;51.40;;;;;;5042526;28;19973;-66
2022/11/04 08:11:56;;;;;;;;;;;14.90;51.50;;;;;;5044807;28;20032;-66
2022/11/04 08:14:22;;;;;;;;;;;14.90;51.60;;;;;;5048291;28;20021;-67
2022/11/04 08:16:51;;;;;;;;;;;14.80;51.60;;;;;;5042271;28;19973;-66
2022/11/04 08:19:23;;;;;;;;;;;14.90;51.90;;;;;;5039223;28;20445;-67
2022/11/04 08:21:49;;;;;;;;;;;14.90;51.60;;;;;;5039881;28;19958;-68
2022/11/04 08:24:15;;;;;;;;;;;14.90;51.60;;;;;;5039897;28;19976;-66
2022/11/04 08:26:41;;;;;;;;;;;14.80;51.70;;;;;;5040963;28;19980;-66
2022/11/04 08:29:07;;;;;;;;;;;14.80;51.90;;;;;;5041919;28;19961;-67
2022/11/04 08:31:34;;;;;;;;;;;14.80;52.00;;;;;;5043473;28;20008;-66
2022/11/04 08:34:00;;;;;;;;;;;14.60;52.10;;;;;;5038447;28;19963;-66
2022/11/04 08:36:31;;;;;;;;;;;14.60;52.40;;;;;;5044745;28;19964;-65
2022/11/04 08:38:57;;;;;;;;;;;14.70;52.40;;;;;;5049254;28;20376;-66
2022/11/04 08:41:25;;;;;;;;;;;14.60;52.30;;;;;;5035327;28;19958;-65
2022/11/04 08:43:51;;;;;;;;;;;14.60;52.30;;;;;;5043604;28;19957;-68
2022/11/04 08:46:17;;;;;;;;;;;14.60;52.00;;;;;;5043848;28;19972;-66
2022/11/04 08:48:43;;;;;;;;;;;14.50;51.70;;;;;;5040938;28;19957;-66
2022/11/04 08:51:11;;;;;;;;;;;14.60;51.60;;;;;;5040989;28;19981;-66
2022/11/04 08:53:37;;;;;;;;;;;14.70;51.40;;;;;;5041421;28;20003;-68
2022/11/04 08:56:10;;;;;;;;;;;14.70;51.30;;;;;;5043721;28;19961;-66
2022/11/04 08:58:36;;;;;;;;;;;14.70;51.20;;;;;;5041361;28;20493;-67
2022/11/04 09:01:03;;;;;;;;;;;14.70;51.00;;;;;;5036964;28;19965;-67
2022/11/04 09:03:29;;;;;;;;;;;14.70;51.00;;;;;;5040994;28;20003;-67
2022/11/04 09:05:57;;;;;;;;;;;14.70;51.20;;;;;;5038542;28;20009;-67
2022/11/04 09:08:23;;;;;;;;;;;14.70;51.00;;;;;;5037785;28;19957;-66
2022/11/04 09:10:49;;;;;;;;;;;14.70;50.90;;;;;;5037910;28;19973;-69
2022/11/04 09:13:16;;;;;;;;;;;14.70;51.00;;;;;;5037640;28;20003;-67
2022/11/04 09:15:42;;;;;;;;;;;14.70;50.90;;;;;;5040024;28;19973;-68
2022/11/04 09:18:09;;;;;;;;;;;14.70;50.80;;;;;;5039175;28;19965;-68
2022/11/04 09:20:38;;;;;;;;;;;14.70;50.70;;;;;;5041907;28;20461;-67
2022/11/04 09:23:04;;;;;;;;;;;14.70;50.80;;;;;;5033840;28;20326;-68
2022/11/04 09:25:31;;;;;;;;;;;14.60;50.90;;;;;;5036343;28;20011;-69
2022/11/04 09:27:58;;;;;;;;;;;14.60;50.70;;;;;;5056164;28;20411;-66
2022/11/04 09:30:24;;;;;;;;;;;14.60;50.90;;;;;;5039841;28;20003;-68
2022/11/04 09:32:51;;;;;;;;;;;14.60;50.90;;;;;;5039383;28;20064;-68
2022/11/04 09:35:17;;;;;;;;;;;14.60;50.90;;;;;;5040234;28;19969;-66
2022/11/04 09:37:43;;;;;;;;;;;14.60;51.30;;;;;;5042344;28;20342;-67
2022/11/04 09:40:14;;;;;;;;;;;14.60;51.40;;;;;;5044790;28;20001;-66
2022/11/04 09:42:50;;;;;;;;;;;14.50;51.60;;;;;;5041983;28;20411;-66
2022/11/04 09:45:17;;;;;;;;;;;14.50;51.70;;;;;;5039447;28;20457;-66
2022/11/04 09:47:44;;;;;;;;;;;14.50;52.10;;;;;;5035385;28;20448;-66
2022/11/04 09:50:17;;;;;;;;;;;14.50;51.40;;;;;;5039823;28;19985;-68
2022/11/04 09:52:45;;;;;;;;;;;14.50;51.40;;;;;;5036492;28;20418;-68
2022/11/04 09:55:15;;;;;;;;;;;14.50;51.40;;;;;;5038022;28;20440;-66
2022/11/04 09:57:41;;;;;;;;;;;14.50;51.60;;;;;;5041369;28;19961;-66
2022/11/04 10:00:14;;;;;;;;;;;14.40;51.70;;;;;;5040710;28;19965;-66
2022/11/04 10:02:43;;;;;;;;;;;14.40;51.80;;;;;;5040619;28;19961;-66
2022/11/04 10:05:16;;;;;;;;;;;14.40;51.60;;;;;;5038756;28;19986;-68
2022/11/04 10:07:44;;;;;;;;;;;14.40;51.50;;;;;;5040906;28;20048;-67
2022/11/04 10:10:27;;;;;;;;;;;14.50;51.30;;;;;;5043501;28;19968;-65
2022/11/04 10:12:53;;;;;;;;;;;14.50;51.40;;;;;;5041514;28;19961;-65
2022/11/04 10:15:31;;;;;;;;;;;14.40;51.30;;;;;;5037269;28;19973;-67
2022/11/04 10:18:03;;;;;;;;;;;14.60;51.60;;;;;;5039247;28;20003;-67
2022/11/04 10:20:39;;;;;;;;;;;14.30;51.80;;;;;;5035021;28;19992;-68
2022/11/04 10:23:21;;;;;;;;;;;14.30;51.60;;;;;;5043148;28;19961;-67
2022/11/04 10:25:48;;;;;;;;;;;14.30;51.40;;;;;;5043356;28;19968;-67
2022/11/04 10:28:19;;;;;;;;;;;14.30;51.70;;;;;;5038819;28;19979;-66
2022/11/04 10:30:50;;;;;;;;;;;14.30;52.00;;;;;;5044353;28;20353;-65
2022/11/04 10:33:22;;;;;;;;;;;14.30;51.80;;;;;;5046916;28;20064;-65
2022/11/04 10:35:50;;;;;;;;;;;14.30;52.20;;;;;;5039608;28;20129;-66
2022/11/04 10:38:16;;;;;;;;;;;14.20;52.20;;;;;;5048280;28;20409;-65
2022/11/04 10:40:45;;;;;;;;;;;14.20;52.60;;;;;;5043783;28;19989;-64
2022/11/04 10:43:13;;;;;;;;;;;14.20;52.70;;;;;;5045539;28;19961;-66
2022/11/04 10:46:00;;;;;;;;;;;14.20;52.90;;;;;;5045198;28;20418;-65
2022/11/04 10:48:49;;;;;;;;;;;14.20;52.80;;;;;;5036844;28;20384;-65
2022/11/04 10:51:21;;;;;;;;;;;14.10;53.10;;;;;;5020888;28;19989;-65
2022/11/04 10:53:52;;;;;;;;;;;14.10;53.10;;;;;;5046106;28;19962;-65
2022/11/04 10:56:21;;;;;;;;;;;14.00;53.50;;;;;;5039617;28;20001;-66
2022/11/04 10:58:47;;;;;;;;;;;13.90;53.90;;;;;;5042547;28;19953;-65
2022/11/04 11:01:33;;;;;;;;;;;13.80;54.10;;;;;;5039830;28;20009;-65
2022/11/04 11:03:59;;;;;;;;;;;13.80;54.40;;;;;;5040787;28;20334;-67
2022/11/04 11:06:28;;;;;;;;;;;14.10;54.80;;;;;;5045678;28;20422;-65
2022/11/04 11:08:59;;;;;;;;;;;13.60;54.90;;;;;;5044861;28;20365;-67
2022/11/04 11:11:35;;;;;;;;;;;13.70;55.00;;;;;;5041502;28;20023;-69
2022/11/04 11:14:01;;;;;;;;;;;13.60;55.00;;;;;;5038693;28;20042;-66
2022/11/04 11:16:30;;;;;;;;;;;13.50;55.40;;;;;;5038698;28;21502;-66
2022/11/04 11:19:25;;;;;;;;;;;13.60;55.20;;;;;;5040832;28;20423;-66
2022/11/04 11:21:53;;;;;;;;;;;13.50;55.30;;;;;;4980605;28;19990;-68
2022/11/04 11:24:21;;;;;;;;;;;13.50;55.40;;;;;;4979537;28;19981;-66
2022/11/04 11:26:49;;;;;;;;;;;13.50;55.40;;;;;;4981040;28;19959;-68
2022/11/04 11:29:26;;;;;;;;;;;13.40;55.70;;;;;;4978424;28;20001;-66
2022/11/04 11:31:53;;;;;;;;;;;13.40;55.70;;;;;;4981618;28;20007;-66
2022/11/04 11:34:36;;;;;;;;;;;13.30;55.70;;;;;;4974337;28;19977;-66
2022/11/04 11:37:03;;;;;;;;;;;13.30;55.60;;;;;;4981127;28;19969;-68
2022/11/04 11:39:31;;;;;;;;;;;13.30;55.40;;;;;;4983734;28;21580;-65
2022/11/04 11:41:59;;;;;;;;;;;13.40;55.30;;;;;;4980968;28;19981;-66
2022/11/04 11:44:45;;;;;;;;;;;13.30;55.30;;;;;;4978808;28;20005;-66
2022/11/04 11:47:20;;;;;;;;;;;13.30;55.00;;;;;;4973988;28;20471;-65
2022/11/04 11:50:03;;;;;;;;;;;13.30;54.90;;;;;;4984648;28;19982;-67
2022/11/04 11:52:29;;;;;;;;;;;13.30;54.50;;;;;;4980452;28;19989;-67
2022/11/04 11:55:03;;;;;;;;;;;13.30;54.80;;;;;;4981817;28;19963;-65
2022/11/04 11:57:55;;;;;;;;;;;13.30;54.80;;;;;;4995493;28;20373;-66
2022/11/04 12:00:27;;;;;;;;;;;13.20;54.80;;;;;;5042085;28;19968;-64
2022/11/04 12:03:12;;;;;;;;;;;13.20;55.00;;;;;;5041059;28;19957;-68
2022/11/04 12:05:40;;;;;;;;;;;13.10;55.30;;;;;;5040923;28;19957;-68
2022/11/04 12:08:22;;;;;;;;;;;13.10;55.30;;;;;;5043091;28;19957;-68
2022/11/04 12:10:52;;;;;;;;;;;13.10;55.10;;;;;;5038891;28;19957;-67
2022/11/04 12:13:50;;;;;;;;;;;13.10;55.10;;;;;;5043551;28;20322;-66
2022/11/04 12:16:39;;;;;;;;;;;13.00;55.20;;;;;;5022441;28;20433;-66
2022/11/04 12:19:05;;;;;;;;;;;13.00;54.90;;;;;;5038391;28;19962;-66
2022/11/04 12:21:42;;;;;;;;;;;13.00;55.00;;;;;;5041530;28;20060;-68
2022/11/04 12:24:27;;;;;;;;;;;13.00;55.10;;;;;;5044218;28;20049;-68
2022/11/04 12:27:02;;;;;;;;;;;13.00;55.00;;;;;;5042138;28;20406;-66
2022/11/04 12:29:56;;;;;;;;;;;12.90;55.00;;;;;;5042178;28;20056;-66
2022/11/04 12:32:31;;;;;;;;;;;12.90;55.10;;;;;;5034474;28;20408;-65
2022/11/04 12:35:01;;;;;;;;;;;12.90;55.00;;;;;;5046901;28;19965;-65
2022/11/04 12:37:44;;;;;;;;;;;13.00;55.20;;;;;;5040209;28;20039;-67
2022/11/04 12:40:31;;;;;;;;;;;12.90;54.60;;;;;;5037657;28;19961;-66
2022/11/04 12:43:00;;;;;;;;;;;13.00;54.50;;;;;;5041832;28;19957;-68
2022/11/04 12:45:41;;;;;;;;;;;13.00;55.10;;;;;;5041853;28;19966;-67
2022/11/04 12:48:10;;;;;;;;;;;13.00;55.50;;;;;;5042115;28;20411;-67
2022/11/04 12:50:41;;;;;;;;;;;13.00;55.30;;;;;;5039421;28;19981;-67
2022/11/04 12:53:13;;;;;;;;;;;12.90;54.90;;;;;;5038527;28;20084;-65
2022/11/04 12:55:39;;;;;;;;;;;12.80;55.00;;;;;;5040945;28;20010;-67
2022/11/04 12:58:05;;;;;;;;;;;12.80;55.00;;;;;;5041867;28;20048;-65
2022/11/04 13:00:33;;;;;;;;;;;12.80;55.30;;;;;;5042073;28;20349;-68
2022/11/04 13:03:12;;;;;;;;;;;12.70;55.40;;;;;;5044146;28;20354;-65
2022/11/04 13:05:48;;;;;;;;;;;12.80;55.20;;;;;;5039468;28;19957;-65
2022/11/04 13:08:14;;;;;;;;;;;12.80;55.00;;;;;;5041206;28;19960;-65
2022/11/04 13:10:49;;;;;;;;;;;12.80;54.60;;;;;;5042417;28;19954;-66
2022/11/04 13:13:17;;;;;;;;;;;12.80;54.40;;;;;;5040949;28;19961;-67
2022/11/04 13:15:48;;;;;;;;;;;12.80;54.30;;;;;;5038115;28;20024;-69
2022/11/04 13:18:17;;;;;;;;;;;12.70;54.50;;;;;;5042793;28;19964;-66
2022/11/04 13:20:43;;;;;;;;;;;12.70;54.60;;;;;;5038510;28;20321;-67
2022/11/04 13:23:17;;;;;;;;;;;12.70;54.50;;;;;;5040032;28;20018;-68
2022/11/04 13:25:44;;;;;;;;;;;12.70;54.60;;;;;;5042197;28;19965;-65
2022/11/04 13:28:12;;;;;;;;;;;12.70;54.30;;;;;;5042417;28;19968;-65
2022/11/04 13:30:56;;;;;;;;;;;12.60;54.80;;;;;;5035631;28;20055;-67
2022/11/04 13:33:35;;;;;;;;;;;12.50;54.80;;;;;;5042711;28;19962;-66
2022/11/04 13:36:06;;;;;;;;;;;12.60;54.50;;;;;;5037666;28;20296;-65
2022/11/04 13:38:37;;;;;;;;;;;12.60;54.40;;;;;;5036017;28;19982;-65
2022/11/04 13:41:03;;;;;;;;;;;12.60;54.50;;;;;;5034970;28;20056;-66
2022/11/04 13:43:38;;;;;;;;;;;12.60;54.70;;;;;;5040707;28;20392;-66
2022/11/04 13:46:10;;;;;;;;;;;12.60;54.60;;;;;;5039331;28;19972;-65
2022/11/04 13:48:37;;;;;;;;;;;12.60;54.50;;;;;;5040859;28;19957;-67
2022/11/04 13:51:05;;;;;;;;;;;12.60;54.90;;;;;;5039316;28;20020;-65
2022/11/04 13:53:48;;;;;;;;;;;12.50;55.40;;;;;;5042710;28;19961;-66
2022/11/04 13:56:28;;;;;;;;;;;12.50;55.60;;;;;;5038292;28;19977;-67
2022/11/04 13:58:56;;;;;;;;;;;12.60;56.00;;;;;;5040381;28;19980;-67
2022/11/04 14:01:22;;;;;;;;;;;12.50;55.90;;;;;;5042272;28;19965;-67
2022/11/04 14:03:53;;;;;;;;;;;12.50;56.00;;;;;;5041133;28;20019;-66
2022/11/04 14:06:38;;;;;;;;;;;12.40;55.80;;;;;;5036331;28;19958;-67
2022/11/04 14:09:31;;;;;;;;;;;12.30;56.10;;;;;;5041463;28;19964;-64
2022/11/04 14:12:09;;;;;;;;;;;12.40;55.70;;;;;;5036132;28;19973;-64
2022/11/04 14:14:36;;;;;;;;;;;12.50;55.50;;;;;;5035286;28;19977;-65
2022/11/04 14:17:06;;;;;;;;;;;12.50;55.40;;;;;;5033214;28;19958;-66
2022/11/04 14:19:58;;;;;;;;;;;12.60;55.30;;;;;;5037028;28;20349;-67
2022/11/04 14:22:30;;;;;;;;;;;12.60;55.50;;;;;;5000072;28;20374;-66
2022/11/04 14:25:16;;;;;;;;;;;12.50;55.80;;;;;;4999251;28;19962;-67
2022/11/04 14:27:42;;;;;;;;;;;12.40;55.90;;;;;;4988533;28;19958;-65
2022/11/04 14:30:26;;;;;;;;;;;12.40;55.80;;;;;;4996578;28;19969;-66
2022/11/04 14:32:55;;;;;;;;;;;12.50;55.70;;;;;;4994830;28;20016;-65
2022/11/04 14:35:22;;;;;;;;;;;12.50;55.30;;;;;;4992280;28;20008;-65
2022/11/04 14:37:51;;;;;;;;;;;12.60;55.10;;;;;;5001778;28;20514;-67
2022/11/04 14:40:28;;;;;;;;;;;12.60;54.50;;;;;;5000783;28;20691;-65
2022/11/04 14:42:55;;;;;;;;;;;12.70;54.10;;;;;;4990930;28;19989;-65
2022/11/04 14:45:23;;;;;;;;;;;12.60;54.00;;;;;;4996561;28;19993;-65
2022/11/04 14:47:51;;;;;;;;;;;12.70;55.00;;;;;;4994670;28;19962;-65
2022/11/04 14:50:23;;;;;;;;;;;12.70;54.50;;;;;;4999706;28;20025;-65
2022/11/04 14:53:00;;;;;;;;;;;12.80;53.00;;;;;;5001958;28;20443;-66
2022/11/04 14:55:28;;;;;;;;;;;12.80;52.60;;;;;;4998610;28;19957;-65
2022/11/04 14:57:56;;;;;;;;;;;12.90;52.70;;;;;;4997629;28;19958;-66
2022/11/04 15:00:27;;;;;;;;;;;12.90;53.30;;;;;;5041612;28;19957;-68
2022/11/04 15:03:02;;;;;;;;;;;13.00;53.30;;;;;;5038639;28;19957;-66